createdAt,value
2023-05-05T00:01:07.994Z,4.05
2023-05-05T00:03:35.844Z,4.20
2023-05-05T00:06:02.489Z,3.28
2023-05-05T00:08:29.078Z,3.17
2023-05-05T00:10:56.596Z,3.05
2023-05-05T00:13:23.636Z,2.88
2023-05-05T00:15:51.373Z,3.78
2023-05-05T00:18:18.370Z,2.97
2023-05-05T00:20:46.892Z,3.45
2023-05-05T00:23:14.176Z,3.10
2023-05-05T00:25:40.902Z,3.55
2023-05-05T00:28:07.522Z,3.42
2023-05-05T00:30:34.688Z,3.03
2023-05-05T00:33:01.599Z,3.42
2023-05-05T00:35:28.297Z,3.38
2023-05-05T00:37:55.117Z,2.75
2023-05-05T00:40:21.826Z,3.22
2023-05-05T00:42:52.417Z,2.90
2023-05-05T00:45:19.760Z,3.33
2023-05-05T00:47:51.476Z,3.00
2023-05-05T00:50:29.208Z,3.63
2023-05-05T00:53:06.233Z,3.53
2023-05-05T00:55:33.482Z,3.55
2023-05-05T00:58:00.548Z,4.18
2023-05-05T01:00:27.700Z,2.60
2023-05-05T01:02:54.378Z,3.97
2023-05-05T01:05:22.252Z,2.80
2023-05-05T01:07:54.652Z,3.22
2023-05-05T01:10:30.554Z,2.92
2023-05-05T01:12:57.165Z,3.58
2023-05-05T01:15:33.326Z,3.40
2023-05-05T01:18:04.957Z,3.40
2023-05-05T01:20:55.468Z,3.03
2023-05-05T01:23:42.228Z,3.55
2023-05-05T01:26:17.209Z,3.00
2023-05-05T01:29:00.865Z,3.80
2023-05-05T01:31:36.728Z,2.95
2023-05-05T01:34:06.269Z,3.10
2023-05-05T01:36:36.262Z,3.05
2023-05-05T01:39:03.366Z,3.70
2023-05-05T01:41:32.129Z,2.95
2023-05-05T01:43:59.891Z,3.95
2023-05-05T01:46:27.168Z,3.08
2023-05-05T01:48:54.946Z,5.40
2023-05-05T01:51:23.243Z,4.03
2023-05-05T01:53:52.094Z,3.25
2023-05-05T01:56:19.141Z,3.45
2023-05-05T01:58:46.123Z,3.47
2023-05-05T02:01:13.409Z,3.40
2023-05-05T02:03:40.572Z,3.08
2023-05-05T02:06:07.736Z,3.92
2023-05-05T02:08:36.583Z,3.65
2023-05-05T02:11:03.485Z,3.25
2023-05-05T02:13:32.549Z,3.40
2023-05-05T02:15:59.767Z,3.83
2023-05-05T02:18:28.482Z,4.75
2023-05-05T02:20:56.624Z,4.47
2023-05-05T02:23:23.378Z,4.57
2023-05-05T02:25:51.320Z,3.60
2023-05-05T02:28:22.456Z,4.32
2023-05-05T02:30:53.569Z,4.15
2023-05-05T02:33:21.445Z,4.57
2023-05-05T02:35:49.956Z,4.95
2023-05-05T02:38:19.626Z,4.22
2023-05-05T02:40:47.713Z,4.78
2023-05-05T02:43:16.249Z,4.90
2023-05-05T02:45:42.790Z,4.00
2023-05-05T02:48:10.744Z,5.80
2023-05-05T02:50:37.302Z,5.70
2023-05-05T02:53:03.975Z,5.25
2023-05-05T02:55:42.346Z,4.70
2023-05-05T02:58:14.296Z,4.97
2023-05-05T03:00:46.252Z,6.15
2023-05-05T03:03:24.684Z,5.55
2023-05-05T03:06:00.723Z,5.53
2023-05-05T03:08:29.652Z,4.80
2023-05-05T03:11:04.180Z,5.18
2023-05-05T03:13:32.306Z,6.25
2023-05-05T03:16:00.178Z,4.95
2023-05-05T03:18:28.157Z,5.28
2023-05-05T03:20:54.707Z,6.50
2023-05-05T03:23:22.972Z,6.28
2023-05-05T03:25:49.997Z,6.57
2023-05-05T03:28:16.767Z,5.68
2023-05-05T03:30:43.380Z,5.20
2023-05-05T03:33:10.622Z,6.28
2023-05-05T03:35:37.151Z,5.63
2023-05-05T03:38:03.640Z,5.85
2023-05-05T03:40:42.945Z,7.07
2023-05-05T03:43:10.777Z,6.00
2023-05-05T03:45:37.754Z,5.97
2023-05-05T03:48:04.572Z,5.90
2023-05-05T03:50:31.105Z,8.43
2023-05-05T03:52:57.583Z,7.30
2023-05-05T03:55:24.664Z,6.57
2023-05-05T03:57:51.183Z,5.78
2023-05-05T04:00:18.130Z,6.00
2023-05-05T04:02:44.701Z,8.55
2023-05-05T04:05:11.277Z,8.57
2023-05-05T04:07:37.801Z,7.78
2023-05-05T04:10:04.497Z,7.07
2023-05-05T04:12:31.043Z,7.65
2023-05-05T04:14:57.536Z,9.18
2023-05-05T04:17:24.053Z,8.07
2023-05-05T04:19:50.616Z,8.90
2023-05-05T04:22:17.108Z,8.93
2023-05-05T04:24:43.638Z,8.30
2023-05-05T04:27:10.185Z,9.40
2023-05-05T04:29:36.666Z,10.13
2023-05-05T04:32:03.179Z,10.43
2023-05-05T04:34:29.737Z,8.73
2023-05-05T04:36:56.591Z,8.18
2023-05-05T04:39:23.063Z,10.65
2023-05-05T04:41:49.732Z,9.27
2023-05-05T04:44:16.250Z,7.80
2023-05-05T04:46:42.747Z,8.18
2023-05-05T04:49:09.507Z,7.57
2023-05-05T04:51:36.052Z,8.40
2023-05-05T04:54:02.545Z,8.20
2023-05-05T04:56:32.135Z,9.23
2023-05-05T04:58:58.739Z,8.68
2023-05-05T05:01:25.538Z,9.18
2023-05-05T05:03:52.206Z,8.63
2023-05-05T05:06:18.808Z,8.68
2023-05-05T05:08:45.304Z,9.15
2023-05-05T05:11:12.274Z,10.25
2023-05-05T05:13:38.746Z,10.25
2023-05-05T05:16:06.097Z,9.32
2023-05-05T05:18:32.585Z,10.40
2023-05-05T05:20:59.059Z,10.23
2023-05-05T05:23:25.661Z,10.80
2023-05-05T05:25:52.181Z,9.82
2023-05-05T05:28:18.683Z,8.02
2023-05-05T05:30:45.188Z,9.65
2023-05-05T05:33:11.884Z,10.20
2023-05-05T05:35:38.740Z,8.90
2023-05-05T05:38:05.288Z,9.57
2023-05-05T05:40:31.782Z,9.40
2023-05-05T05:42:58.349Z,9.35
2023-05-05T05:45:24.875Z,9.77
2023-05-05T05:47:51.540Z,9.90
2023-05-05T05:50:18.195Z,8.70
2023-05-05T05:52:44.693Z,9.95
2023-05-05T05:55:11.201Z,8.77
2023-05-05T05:57:37.740Z,9.23
2023-05-05T06:00:04.643Z,9.43
2023-05-05T06:02:31.233Z,9.20
2023-05-05T06:04:57.822Z,10.05
2023-05-05T06:07:24.342Z,11.18
2023-05-05T06:09:51.277Z,11.00
2023-05-05T06:12:17.804Z,10.13
2023-05-05T06:14:44.313Z,10.40
2023-05-05T06:17:10.853Z,9.65
2023-05-05T06:19:39.858Z,10.60
2023-05-05T06:22:06.517Z,10.68
2023-05-05T06:24:33.122Z,10.75
2023-05-05T06:26:59.603Z,10.95
2023-05-05T06:29:26.358Z,11.10
2023-05-05T06:31:53.115Z,11.85
2023-05-05T06:34:19.662Z,11.23
2023-05-05T06:36:46.254Z,10.77
2023-05-05T06:39:15.280Z,9.20
2023-05-05T06:41:42.509Z,10.38
2023-05-05T06:44:09.065Z,13.43
2023-05-05T06:46:35.701Z,10.90
2023-05-05T06:49:02.208Z,12.02
2023-05-05T06:51:28.741Z,11.05
2023-05-05T06:53:55.262Z,9.73
2023-05-05T06:56:21.730Z,8.98
2023-05-05T06:58:48.311Z,9.20
2023-05-05T07:01:14.853Z,10.63
2023-05-05T07:03:41.440Z,8.85
2023-05-05T07:06:08.047Z,8.70
2023-05-05T07:08:34.561Z,10.40
2023-05-05T07:11:01.245Z,8.70
2023-05-05T07:13:27.817Z,8.98
2023-05-05T07:15:54.350Z,8.50
2023-05-05T07:18:21.255Z,7.60
2023-05-05T07:20:47.955Z,7.18
2023-05-05T07:23:14.509Z,7.53
2023-05-05T07:25:41.210Z,7.13
2023-05-05T07:28:07.817Z,9.20
2023-05-05T07:30:34.360Z,8.57
2023-05-05T07:33:00.888Z,8.88
2023-05-05T07:35:27.920Z,7.53
2023-05-05T07:37:54.434Z,6.93
2023-05-05T07:40:21.054Z,7.65
2023-05-05T07:42:47.659Z,7.53
2023-05-05T07:45:14.146Z,6.82
2023-05-05T07:47:40.944Z,8.27
2023-05-05T07:50:07.954Z,8.32
2023-05-05T07:52:44.937Z,7.40
2023-05-05T07:55:16.333Z,7.82
2023-05-05T07:57:42.846Z,6.13
2023-05-05T08:00:10.253Z,6.50
2023-05-05T08:02:37.064Z,6.18
2023-05-05T08:05:04.673Z,5.93
2023-05-05T08:07:31.209Z,7.82
2023-05-05T08:09:57.813Z,6.32
2023-05-05T08:12:24.919Z,8.57
2023-05-05T08:14:51.401Z,6.45
2023-05-05T08:17:17.955Z,6.25
2023-05-05T08:19:44.461Z,6.40
2023-05-05T08:22:10.944Z,6.28
2023-05-05T08:24:37.460Z,6.03
2023-05-05T08:27:04.222Z,6.85
2023-05-05T08:29:30.769Z,6.78
2023-05-05T08:31:57.352Z,5.90
2023-05-05T08:34:24.015Z,6.55
2023-05-05T08:36:51.035Z,7.10
2023-05-05T08:39:17.660Z,6.78
2023-05-05T08:41:44.220Z,6.40
2023-05-05T08:44:10.808Z,6.75
2023-05-05T08:46:38.660Z,6.50
2023-05-05T08:49:05.638Z,6.53
2023-05-05T08:51:37.736Z,7.38
2023-05-05T08:54:05.837Z,6.70
2023-05-05T08:56:37.374Z,6.93
2023-05-05T08:59:04.088Z,7.95
2023-05-05T09:01:32.061Z,6.68
2023-05-05T09:03:59.109Z,8.02
2023-05-05T09:06:27.576Z,6.60
2023-05-05T09:08:54.439Z,8.00
2023-05-05T09:11:22.690Z,8.98
2023-05-05T09:13:49.816Z,7.65
2023-05-05T09:16:19.531Z,8.07
2023-05-05T09:18:46.332Z,7.22
2023-05-05T09:21:22.740Z,9.30
2023-05-05T09:24:08.554Z,8.15
2023-05-05T09:26:42.570Z,8.63
2023-05-05T09:29:09.289Z,9.02
2023-05-05T09:31:36.652Z,8.70
2023-05-05T09:34:13.812Z,8.80
2023-05-05T09:36:44.328Z,7.68
2023-05-05T09:39:11.290Z,9.27
2023-05-05T09:41:38.616Z,8.13
2023-05-05T09:44:05.411Z,8.85
2023-05-05T09:46:32.195Z,7.53
2023-05-05T09:49:23.521Z,6.80
2023-05-05T09:51:50.065Z,7.32
2023-05-05T09:54:26.803Z,8.23
2023-05-05T09:56:53.694Z,7.93
2023-05-05T09:59:20.691Z,8.98
2023-05-05T10:01:47.634Z,9.15
2023-05-05T10:04:25.029Z,7.60
2023-05-05T10:06:51.638Z,7.70
2023-05-05T10:09:18.193Z,9.35
2023-05-05T10:11:46.361Z,9.30
2023-05-05T10:14:16.721Z,8.57
2023-05-05T10:16:50.972Z,7.70
2023-05-05T10:19:18.523Z,8.60
2023-05-05T10:21:52.274Z,7.95
2023-05-05T10:24:35.500Z,7.13
2023-05-05T10:27:05.516Z,8.00
2023-05-05T10:29:50.805Z,7.18
2023-05-05T10:32:53.983Z,8.07
2023-05-05T10:35:17.028Z,7.38
2023-05-05T10:37:44.707Z,9.02
2023-05-05T10:40:12.262Z,8.32
2023-05-05T10:42:40.214Z,8.73
2023-05-05T10:45:08.667Z,9.07
2023-05-05T10:47:36.073Z,8.73
2023-05-05T10:50:06.727Z,9.73
2023-05-05T10:53:02.701Z,8.10
2023-05-05T10:55:38.459Z,7.15
2023-05-05T10:58:04.935Z,7.90
2023-05-05T11:00:40.267Z,8.60
2023-05-05T11:03:22.451Z,9.70
2023-05-05T11:06:12.572Z,9.70
2023-05-05T11:08:42.714Z,11.15
2023-05-05T11:11:12.434Z,11.13
2023-05-05T11:13:39.610Z,8.98
2023-05-05T11:16:06.515Z,9.90
2023-05-05T11:18:35.834Z,8.73
2023-05-05T11:21:15.602Z,8.27
2023-05-05T11:23:43.071Z,8.60
2023-05-05T11:26:09.708Z,8.02
2023-05-05T11:28:54.675Z,8.25
2023-05-05T11:31:21.524Z,8.23
2023-05-05T11:33:48.345Z,8.23
2023-05-05T11:36:18.386Z,9.60
2023-05-05T11:39:00.354Z,7.47
2023-05-05T11:41:26.874Z,9.75
2023-05-05T11:44:13.667Z,9.90
2023-05-05T11:46:41.206Z,11.95
2023-05-05T11:49:09.135Z,9.35
2023-05-05T11:51:35.832Z,8.57
2023-05-05T11:54:02.392Z,10.05
2023-05-05T11:56:29.023Z,9.75
2023-05-05T11:59:09.786Z,8.13
2023-05-05T12:01:40.972Z,9.30
2023-05-05T12:04:08.842Z,9.02
2023-05-05T12:06:35.514Z,8.82
2023-05-05T12:09:02.207Z,10.52
2023-05-05T12:11:28.768Z,9.20
2023-05-05T12:14:08.514Z,9.27
2023-05-05T12:16:35.178Z,9.95
2023-05-05T12:19:08.360Z,9.27
2023-05-05T12:21:35.824Z,9.85
2023-05-05T12:24:02.836Z,9.63
2023-05-05T12:26:32.159Z,9.95
2023-05-05T12:28:59.693Z,10.25
2023-05-05T12:31:38.812Z,9.15
2023-05-05T12:34:06.458Z,8.23
2023-05-05T12:36:33.749Z,10.68
2023-05-05T12:39:00.300Z,9.15
2023-05-05T12:41:26.986Z,8.93
2023-05-05T12:43:59.390Z,10.20
2023-05-05T12:46:26.658Z,9.45
2023-05-05T12:49:00.106Z,8.52
2023-05-05T12:51:27.226Z,6.97
2023-05-05T12:54:10.186Z,6.53
2023-05-05T12:56:44.190Z,6.38
2023-05-05T12:59:12.241Z,7.03
2023-05-05T13:01:52.802Z,7.05
2023-05-05T13:04:19.971Z,5.53
2023-05-05T13:06:47.586Z,6.65
2023-05-05T13:09:27.096Z,5.30
2023-05-05T13:11:54.642Z,7.57
2023-05-05T13:14:21.479Z,6.53
2023-05-05T13:16:48.005Z,6.78
2023-05-05T13:19:14.639Z,7.38
2023-05-05T13:21:41.784Z,9.60
2023-05-05T13:24:23.557Z,8.10
2023-05-05T13:26:55.904Z,6.50
2023-05-05T13:29:23.593Z,7.97
2023-05-05T13:31:52.714Z,7.90
2023-05-05T13:34:19.259Z,6.38
2023-05-05T13:36:45.958Z,6.35
2023-05-05T13:39:12.759Z,7.10
2023-05-05T13:41:39.375Z,7.95
2023-05-05T13:44:05.928Z,8.85
2023-05-05T13:46:32.760Z,7.55
2023-05-05T13:48:59.291Z,8.35
2023-05-05T13:51:25.805Z,8.95
2023-05-05T13:53:52.777Z,7.93
2023-05-05T13:56:19.348Z,9.15
2023-05-05T13:58:46.419Z,8.43
2023-05-05T14:01:12.939Z,9.65
2023-05-05T14:03:39.863Z,8.52
2023-05-05T14:06:06.895Z,10.35
2023-05-05T14:08:33.419Z,9.43
2023-05-05T14:10:59.935Z,12.18
2023-05-05T14:13:26.786Z,11.98
2023-05-05T14:15:53.847Z,10.70
2023-05-05T14:18:20.903Z,10.38
2023-05-05T14:20:47.389Z,10.25
2023-05-05T14:23:13.897Z,9.65
2023-05-05T14:25:40.499Z,11.10
2023-05-05T14:28:07.432Z,11.15
2023-05-05T14:30:33.970Z,11.95
2023-05-05T14:33:01.455Z,10.07
2023-05-05T14:35:28.055Z,9.75
2023-05-05T14:37:54.586Z,10.77
2023-05-05T14:40:21.108Z,10.98
2023-05-05T14:42:47.656Z,10.60
2023-05-05T14:45:14.188Z,8.65
2023-05-05T14:47:40.911Z,10.32
2023-05-05T14:50:09.809Z,10.32
2023-05-05T14:52:37.361Z,11.18
2023-05-05T14:55:03.965Z,11.57
